createdAt,value
2022-11-20T00:01:24.151Z,2.43
2022-11-20T00:03:55.171Z,2.50
2022-11-20T00:06:22.537Z,2.59
2022-11-20T00:08:49.790Z,2.64
2022-11-20T00:11:21.242Z,2.75
2022-11-20T00:13:49.719Z,2.80
2022-11-20T00:16:19.120Z,2.78
2022-11-20T00:18:45.893Z,2.82
2022-11-20T00:21:16.223Z,2.88
2022-11-20T00:23:42.830Z,2.93
2022-11-20T00:26:14.442Z,2.96
2022-11-20T00:28:41.828Z,2.99
2022-11-20T00:31:15.560Z,3.07
2022-11-20T00:33:42.984Z,3.10
2022-11-20T00:36:12.181Z,3.11
2022-11-20T00:38:38.880Z,3.09
2022-11-20T00:41:08.425Z,3.09
2022-11-20T00:43:34.900Z,3.01
2022-11-20T00:46:08.087Z,2.94
2022-11-20T00:48:34.682Z,2.89
2022-11-20T00:51:01.271Z,2.88
2022-11-20T00:53:27.855Z,2.93
2022-11-20T00:56:01.356Z,2.99
2022-11-20T00:58:33.312Z,3.04
2022-11-20T01:01:21.833Z,3.03
2022-11-20T01:03:49.729Z,3.08
2022-11-20T01:06:23.783Z,2.98
2022-11-20T01:08:51.526Z,2.93
2022-11-20T01:11:24.035Z,2.94
2022-11-20T01:13:51.560Z,2.97
2022-11-20T01:16:30.120Z,2.97
2022-11-20T01:18:58.921Z,2.91
2022-11-20T01:21:27.825Z,2.82
2022-11-20T01:23:54.794Z,2.76
2022-11-20T01:26:26.862Z,2.73
2022-11-20T01:28:54.599Z,2.75
2022-11-20T01:31:23.766Z,2.75
2022-11-20T01:33:52.723Z,2.75
2022-11-20T01:36:20.879Z,2.72
2022-11-20T01:38:47.698Z,2.73
2022-11-20T01:41:35.135Z,2.69
2022-11-20T01:44:02.169Z,2.65
2022-11-20T01:46:29.006Z,2.65
2022-11-20T01:49:03.223Z,2.66
2022-11-20T01:51:41.049Z,2.71
2022-11-20T01:54:12.700Z,2.76
2022-11-20T01:56:41.155Z,2.69
2022-11-20T01:59:07.893Z,2.70
2022-11-20T02:01:34.608Z,2.75
2022-11-20T02:04:01.275Z,2.79
2022-11-20T02:06:31.186Z,2.75
2022-11-20T02:08:57.831Z,2.74
2022-11-20T02:11:24.357Z,2.72
2022-11-20T02:13:50.989Z,2.73
2022-11-20T02:16:27.867Z,2.77
2022-11-20T02:18:55.837Z,2.75
2022-11-20T02:21:27.850Z,2.74
2022-11-20T02:24:15.227Z,2.75
2022-11-20T02:26:48.018Z,2.75
2022-11-20T02:29:17.486Z,2.77
2022-11-20T02:31:44.142Z,2.74
2022-11-20T02:34:10.781Z,2.74
2022-11-20T02:36:38.232Z,2.74
2022-11-20T02:39:05.069Z,2.69
2022-11-20T02:41:36.645Z,2.59
2022-11-20T02:44:04.083Z,2.53
2022-11-20T02:46:31.850Z,2.48
2022-11-20T02:48:58.379Z,2.46
2022-11-20T02:51:25.223Z,2.42
2022-11-20T02:53:51.960Z,2.33
2022-11-20T02:56:18.415Z,2.30
2022-11-20T02:58:44.824Z,2.36
2022-11-20T03:01:11.314Z,2.40
2022-11-20T03:03:37.895Z,2.47
2022-11-20T03:06:04.869Z,2.53
2022-11-20T03:08:31.472Z,2.57
2022-11-20T03:11:03.128Z,2.60
2022-11-20T03:13:29.559Z,2.57
2022-11-20T03:15:56.096Z,2.57
2022-11-20T03:18:22.629Z,2.57
2022-11-20T03:20:49.162Z,2.45
2022-11-20T03:23:15.698Z,2.34
2022-11-20T03:25:42.438Z,2.22
2022-11-20T03:28:09.068Z,2.20
2022-11-20T03:30:35.608Z,2.18
2022-11-20T03:33:02.163Z,2.13
2022-11-20T03:35:28.676Z,2.14
2022-11-20T03:37:55.313Z,2.09
2022-11-20T03:40:21.784Z,2.04
2022-11-20T03:42:48.380Z,2.07
2022-11-20T03:45:16.720Z,2.15
2022-11-20T03:47:44.029Z,2.19
2022-11-20T03:50:13.155Z,2.18
2022-11-20T03:52:40.148Z,2.19
2022-11-20T03:55:07.461Z,2.20
2022-11-20T03:57:33.935Z,2.28
2022-11-20T04:00:00.344Z,2.41
2022-11-20T04:02:26.901Z,2.51
2022-11-20T04:04:53.536Z,2.65
2022-11-20T04:07:20.332Z,2.78
2022-11-20T04:09:46.920Z,2.88
2022-11-20T04:12:13.344Z,2.94
2022-11-20T04:14:39.893Z,2.95
2022-11-20T04:17:06.412Z,3.00
2022-11-20T04:19:32.845Z,3.04
2022-11-20T04:21:59.379Z,3.08
2022-11-20T04:24:26.735Z,3.06
2022-11-20T04:26:53.369Z,2.97
2022-11-20T04:29:20.107Z,2.86
2022-11-20T04:31:46.950Z,2.82
2022-11-20T04:34:13.691Z,2.74
2022-11-20T04:36:40.325Z,2.82
2022-11-20T04:39:07.028Z,2.82
2022-11-20T04:41:35.854Z,2.81
2022-11-20T04:44:04.200Z,2.85
2022-11-20T04:46:41.923Z,2.97
2022-11-20T04:49:08.508Z,3.06
2022-11-20T04:51:35.288Z,3.10
2022-11-20T04:54:01.833Z,3.17
2022-11-20T04:56:28.375Z,3.19
2022-11-20T04:58:54.800Z,3.23
2022-11-20T05:01:23.339Z,3.29
2022-11-20T05:03:50.121Z,3.36
2022-11-20T05:06:19.054Z,3.42
2022-11-20T05:08:45.648Z,3.48
2022-11-20T05:11:15.355Z,3.56
2022-11-20T05:13:42.308Z,3.63
2022-11-20T05:16:11.115Z,3.57
2022-11-20T05:18:38.056Z,3.49
2022-11-20T05:21:05.083Z,3.46
2022-11-20T05:23:32.122Z,3.49
2022-11-20T05:25:59.375Z,3.50
2022-11-20T05:28:27.342Z,3.50
2022-11-20T05:30:54.080Z,3.51
2022-11-20T05:33:21.229Z,3.52
2022-11-20T05:35:48.891Z,3.54
2022-11-20T05:38:15.937Z,3.52
2022-11-20T05:40:42.369Z,3.54
2022-11-20T05:43:08.901Z,3.56
2022-11-20T05:45:35.745Z,3.47
2022-11-20T05:48:02.502Z,3.48
2022-11-20T05:50:28.964Z,3.46
2022-11-20T05:52:55.652Z,3.41
2022-11-20T05:55:22.188Z,3.47
2022-11-20T05:57:48.755Z,3.47
2022-11-20T06:00:15.767Z,3.47
2022-11-20T06:02:42.171Z,3.42
2022-11-20T06:05:08.928Z,3.40
2022-11-20T06:07:35.477Z,3.38
2022-11-20T06:10:02.060Z,3.40
2022-11-20T06:12:28.471Z,3.45
2022-11-20T06:14:54.900Z,3.54
2022-11-20T06:17:21.343Z,3.58
2022-11-20T06:19:47.759Z,3.66
2022-11-20T06:22:14.371Z,3.73
2022-11-20T06:24:40.802Z,3.80
2022-11-20T06:27:07.442Z,3.81
2022-11-20T06:29:34.309Z,3.80
2022-11-20T06:32:01.637Z,3.88
2022-11-20T06:34:28.061Z,3.95
2022-11-20T06:36:54.602Z,4.03
2022-11-20T06:39:21.481Z,4.09
2022-11-20T06:41:48.386Z,4.16
2022-11-20T06:44:14.924Z,4.19
2022-11-20T06:46:41.455Z,4.19
2022-11-20T06:49:08.091Z,4.25
2022-11-20T06:51:34.611Z,4.25
2022-11-20T06:54:01.568Z,4.25
2022-11-20T06:56:28.450Z,4.27
2022-11-20T06:58:54.873Z,4.14
2022-11-20T07:01:21.512Z,4.14
2022-11-20T07:03:54.216Z,4.16
2022-11-20T07:06:21.084Z,4.14
2022-11-20T07:08:47.582Z,4.21
2022-11-20T07:11:14.318Z,4.29
2022-11-20T07:13:40.909Z,4.35
2022-11-20T07:16:08.161Z,4.47
2022-11-20T07:18:35.236Z,4.47
2022-11-20T07:21:06.639Z,4.53
2022-11-20T07:23:33.123Z,4.60
2022-11-20T07:26:05.264Z,4.63
2022-11-20T07:28:31.788Z,4.72
2022-11-20T07:30:58.322Z,4.80
2022-11-20T07:33:24.884Z,4.85
2022-11-20T07:35:51.395Z,4.87
2022-11-20T07:38:18.027Z,4.80
2022-11-20T07:40:44.462Z,4.75
2022-11-20T07:43:10.916Z,4.72
2022-11-20T07:45:37.425Z,4.75
2022-11-20T07:48:04.676Z,4.76
2022-11-20T07:50:31.415Z,4.81
2022-11-20T07:53:04.077Z,4.82
2022-11-20T07:55:30.730Z,4.82
2022-11-20T07:57:57.833Z,4.86
2022-11-20T08:00:24.413Z,4.95
2022-11-20T08:02:50.951Z,5.01
2022-11-20T08:05:17.585Z,5.09
2022-11-20T08:07:44.560Z,5.06
2022-11-20T08:10:13.417Z,5.20
2022-11-20T08:13:09.962Z,4.86
2022-11-20T08:15:37.307Z,3.63
2022-11-20T08:18:30.161Z,2.78
2022-11-20T08:20:52.479Z,2.09
2022-11-20T08:23:19.133Z,2.09
2022-11-20T08:25:49.866Z,3.48
2022-11-20T08:28:21.370Z,4.40
2022-11-20T08:30:50.305Z,4.87
2022-11-20T08:33:17.937Z,4.99
2022-11-20T08:35:44.604Z,4.35
2022-11-20T08:38:11.004Z,3.35
2022-11-20T08:40:37.408Z,2.52
2022-11-20T08:43:04.717Z,2.45
2022-11-20T08:45:34.605Z,3.43
2022-11-20T08:48:03.052Z,4.27
2022-11-20T08:50:32.002Z,4.79
2022-11-20T08:53:06.083Z,4.93
2022-11-20T08:55:33.241Z,4.97
2022-11-20T08:58:04.100Z,4.67
2022-11-20T09:00:30.632Z,3.72
2022-11-20T09:02:58.857Z,2.93
2022-11-20T09:05:25.308Z,2.60
2022-11-20T09:07:51.976Z,3.56
2022-11-20T09:10:25.678Z,4.38
2022-11-20T09:12:53.337Z,4.80
2022-11-20T09:15:19.893Z,5.11
2022-11-20T09:18:00.521Z,5.37
2022-11-20T09:20:29.652Z,5.58
2022-11-20T09:22:57.292Z,5.41
2022-11-20T09:25:24.031Z,4.54
2022-11-20T09:27:59.401Z,3.65
2022-11-20T09:30:26.731Z,2.98
2022-11-20T09:32:53.363Z,2.82
2022-11-20T09:35:19.804Z,3.72
2022-11-20T09:37:46.250Z,4.40
2022-11-20T09:40:28.404Z,4.86
2022-11-20T09:43:16.372Z,5.22
2022-11-20T09:46:02.661Z,5.34
2022-11-20T09:48:47.836Z,5.45
2022-11-20T09:51:28.831Z,5.64
2022-11-20T09:54:19.197Z,5.83
2022-11-20T09:56:50.107Z,5.25
2022-11-20T09:59:35.107Z,4.29
2022-11-20T10:02:03.114Z,3.34
2022-11-20T10:04:30.731Z,2.68
2022-11-20T10:07:32.673Z,2.16
2022-11-20T10:09:59.590Z,1.65
2022-11-20T10:12:39.380Z,1.35
2022-11-20T10:15:36.561Z,1.75
2022-11-20T10:18:24.066Z,3.28
2022-11-20T10:21:36.677Z,4.27
2022-11-20T10:24:29.015Z,5.34
2022-11-20T10:27:21.557Z,6.23
2022-11-20T10:29:56.536Z,5.96
2022-11-20T10:32:25.685Z,4.78
2022-11-20T10:35:33.948Z,3.86
2022-11-20T10:38:03.799Z,3.03
2022-11-20T10:40:42.428Z,2.57
2022-11-20T10:43:20.216Z,2.31
2022-11-20T10:46:15.533Z,3.35
2022-11-20T10:48:43.813Z,4.61
2022-11-20T10:51:34.303Z,5.12
2022-11-20T10:54:25.110Z,5.43
2022-11-20T10:56:54.304Z,5.49
2022-11-20T10:59:39.887Z,5.71
2022-11-20T11:02:23.834Z,5.89
2022-11-20T11:04:53.843Z,6.10
2022-11-20T11:07:41.776Z,5.54
2022-11-20T11:10:55.520Z,4.43
2022-11-20T11:13:30.250Z,3.53
2022-11-20T11:15:57.190Z,3.00
2022-11-20T11:18:32.427Z,2.86
2022-11-20T11:21:04.556Z,4.04
2022-11-20T11:23:37.967Z,5.01
2022-11-20T11:26:07.885Z,5.61
2022-11-20T11:28:34.437Z,5.89
2022-11-20T11:31:01.078Z,5.45
2022-11-20T11:33:33.981Z,4.41
2022-11-20T11:36:03.464Z,3.57
2022-11-20T11:38:41.257Z,3.00
2022-11-20T11:41:11.136Z,3.01
2022-11-20T11:43:56.453Z,3.92
2022-11-20T11:46:33.280Z,4.83
2022-11-20T11:49:02.522Z,5.38
2022-11-20T11:51:59.673Z,5.67
2022-11-20T11:54:48.135Z,5.95
2022-11-20T11:57:37.490Z,6.22
2022-11-20T12:00:21.462Z,6.25
2022-11-20T12:02:48.786Z,5.31
2022-11-20T12:05:29.861Z,4.44
2022-11-20T12:08:19.469Z,3.70
2022-11-20T12:11:13.138Z,3.10
2022-11-20T12:13:46.296Z,2.60
2022-11-20T12:16:15.358Z,2.44
2022-11-20T12:18:42.538Z,3.48
2022-11-20T12:21:31.907Z,4.48
2022-11-20T12:24:38.890Z,5.08
2022-11-20T12:27:27.029Z,5.53
2022-11-20T12:30:09.732Z,5.84
2022-11-20T12:33:02.295Z,6.13
2022-11-20T12:35:31.791Z,5.38
2022-11-20T12:38:39.839Z,4.39
2022-11-20T12:42:06.786Z,3.47
2022-11-20T12:45:11.477Z,4.31
2022-11-20T12:48:03.713Z,5.22
2022-11-20T12:51:16.141Z,5.69
2022-11-20T12:54:36.147Z,5.92
2022-11-20T12:57:26.095Z,6.02
2022-11-20T13:00:11.208Z,6.16
2022-11-20T13:03:19.781Z,5.36
2022-11-20T13:06:18.267Z,4.12
2022-11-20T13:08:52.871Z,3.29
2022-11-20T13:11:48.609Z,2.78
2022-11-20T13:14:35.547Z,2.35
2022-11-20T13:17:24.070Z,2.76
2022-11-20T13:19:54.300Z,3.93
2022-11-20T13:22:42.534Z,4.57
2022-11-20T13:25:31.601Z,5.03
2022-11-20T13:28:00.691Z,5.35
2022-11-20T13:30:28.353Z,5.58
2022-11-20T13:33:05.230Z,5.79
2022-11-20T13:35:36.308Z,6.03
2022-11-20T13:38:12.303Z,6.18
2022-11-20T13:40:55.620Z,6.25
2022-11-20T13:43:29.335Z,6.38
2022-11-20T13:46:02.838Z,6.31
2022-11-20T13:48:32.890Z,5.37
2022-11-20T13:51:23.364Z,4.43
2022-11-20T13:54:45.193Z,3.59
2022-11-20T13:57:27.089Z,2.89
2022-11-20T14:00:13.540Z,3.38
2022-11-20T14:02:42.084Z,5.64
2022-11-20T14:05:20.895Z,6.76
2022-11-20T14:07:47.741Z,6.67
2022-11-20T14:10:31.772Z,5.48
2022-11-20T14:12:59.279Z,4.29
2022-11-20T14:15:31.770Z,3.54
2022-11-20T14:17:58.836Z,2.99
2022-11-20T14:20:28.262Z,2.55
2022-11-20T14:22:55.306Z,2.34
2022-11-20T14:25:27.251Z,3.91
2022-11-20T14:28:03.529Z,6.38
2022-11-20T14:30:44.604Z,7.83
2022-11-20T14:33:12.370Z,7.93
2022-11-20T14:35:47.599Z,6.49
2022-11-20T14:38:17.588Z,5.15
2022-11-20T14:40:44.570Z,4.28
2022-11-20T14:43:28.655Z,3.65
2022-11-20T14:46:07.656Z,3.14
2022-11-20T14:48:55.573Z,2.77
2022-11-20T14:51:38.801Z,2.65
2022-11-20T14:54:22.381Z,4.63
2022-11-20T14:56:59.907Z,7.02
2022-11-20T14:59:28.412Z,7.65
2022-11-20T15:02:09.071Z,6.54
2022-11-20T15:05:11.547Z,5.24
2022-11-20T15:07:46.068Z,4.20
2022-11-20T15:10:26.444Z,3.91
2022-11-20T15:13:00.509Z,4.95
2022-11-20T15:15:48.782Z,5.74
2022-11-20T15:18:20.976Z,6.26
2022-11-20T15:20:47.688Z,6.52
2022-11-20T15:23:16.255Z,6.57
2022-11-20T15:25:42.790Z,5.76
2022-11-20T15:28:34.037Z,4.81
2022-11-20T15:31:00.960Z,3.97
2022-11-20T15:33:27.375Z,3.43
2022-11-20T15:35:54.029Z,3.24
2022-11-20T15:38:20.621Z,4.43
2022-11-20T15:40:47.195Z,5.77
2022-11-20T15:43:14.215Z,6.44
2022-11-20T15:45:56.553Z,6.70
2022-11-20T15:48:31.484Z,6.42
2022-11-20T15:51:10.714Z,5.35
2022-11-20T15:53:39.236Z,4.41
2022-11-20T15:56:05.744Z,3.75
2022-11-20T15:58:32.365Z,3.68
2022-11-20T16:00:58.983Z,4.54
2022-11-20T16:03:25.843Z,5.16
2022-11-20T16:05:52.378Z,5.66
2022-11-20T16:08:19.013Z,5.92
2022-11-20T16:10:45.647Z,6.08
2022-11-20T16:13:36.145Z,6.22
2022-11-20T16:16:06.209Z,6.35
2022-11-20T16:18:33.207Z,6.75
2022-11-20T16:20:59.743Z,7.18
2022-11-20T16:23:26.584Z,6.98
2022-11-20T16:25:53.225Z,5.84
2022-11-20T16:28:20.061Z,4.82
2022-11-20T16:30:46.751Z,4.08
2022-11-20T16:33:15.382Z,3.51
2022-11-20T16:35:42.428Z,3.58
2022-11-20T16:38:09.279Z,4.79
2022-11-20T16:40:36.008Z,5.59
2022-11-20T16:43:11.148Z,5.88
2022-11-20T16:45:42.400Z,6.05
2022-11-20T16:48:13.328Z,6.12
2022-11-20T16:50:50.904Z,6.20
2022-11-20T16:53:18.841Z,6.30
2022-11-20T16:55:45.503Z,6.42
2022-11-20T16:58:12.591Z,6.53
2022-11-20T17:00:39.449Z,6.64
2022-11-20T17:03:06.156Z,6.64
2022-11-20T17:05:32.894Z,5.75
2022-11-20T17:07:59.509Z,4.77
2022-11-20T17:10:26.019Z,4.05
2022-11-20T17:12:52.702Z,3.64
2022-11-20T17:15:19.336Z,4.31
2022-11-20T17:17:46.075Z,5.42
2022-11-20T17:20:12.734Z,6.17
2022-11-20T17:22:39.661Z,6.54
2022-11-20T17:25:06.629Z,6.71
2022-11-20T17:27:33.237Z,6.66
2022-11-20T17:29:59.979Z,6.72
2022-11-20T17:32:26.511Z,6.75
2022-11-20T17:34:53.147Z,6.74
2022-11-20T17:37:19.715Z,6.68
2022-11-20T17:39:46.318Z,6.70
2022-11-20T17:42:28.971Z,6.75
2022-11-20T17:44:58.126Z,6.52
2022-11-20T17:47:25.378Z,5.48
2022-11-20T17:49:52.950Z,4.49
2022-11-20T17:52:19.981Z,3.63
2022-11-20T17:54:46.620Z,3.12
2022-11-20T17:57:31.891Z,3.80
2022-11-20T17:59:58.442Z,4.59
2022-11-20T18:02:25.069Z,4.94
2022-11-20T18:04:51.578Z,5.21
2022-11-20T18:07:18.403Z,5.40
2022-11-20T18:09:45.026Z,5.58
2022-11-20T18:12:11.506Z,5.87
2022-11-20T18:14:38.145Z,6.04
2022-11-20T18:17:12.360Z,6.01
2022-11-20T18:19:51.646Z,5.97
2022-11-20T18:22:29.184Z,6.06
2022-11-20T18:24:55.727Z,6.13
2022-11-20T18:27:23.291Z,6.16
2022-11-20T18:29:52.988Z,6.14
2022-11-20T18:32:21.072Z,6.26
2022-11-20T18:34:47.553Z,6.37
2022-11-20T18:37:15.809Z,6.51
2022-11-20T18:39:42.915Z,6.61
2022-11-20T18:42:32.053Z,6.67
2022-11-20T18:44:59.695Z,6.76
2022-11-20T18:47:30.080Z,6.85
2022-11-20T18:50:00.590Z,6.90
2022-11-20T18:52:33.356Z,7.01
2022-11-20T18:55:01.871Z,6.60
2022-11-20T18:57:28.996Z,5.64
2022-11-20T19:00:02.196Z,4.80
2022-11-20T19:02:37.933Z,4.14
2022-11-20T19:05:09.475Z,3.61
2022-11-20T19:07:36.209Z,3.89
2022-11-20T19:10:04.154Z,5.09
2022-11-20T19:12:31.217Z,5.71
2022-11-20T19:14:57.784Z,5.88
2022-11-20T19:17:24.297Z,5.95
2022-11-20T19:19:51.609Z,6.03
2022-11-20T19:22:18.104Z,6.16
2022-11-20T19:24:45.449Z,6.37
2022-11-20T19:27:12.189Z,6.48
2022-11-20T19:29:38.742Z,6.53
2022-11-20T19:32:05.362Z,6.64
2022-11-20T19:34:32.098Z,6.68
2022-11-20T19:37:00.375Z,6.66
2022-11-20T19:39:27.183Z,6.72
2022-11-20T19:41:53.953Z,6.78
2022-11-20T19:44:20.619Z,6.77
2022-11-20T19:46:47.151Z,6.48
2022-11-20T19:49:14.034Z,6.40
2022-11-20T19:51:45.276Z,6.46
2022-11-20T19:54:12.055Z,6.41
2022-11-20T19:56:38.487Z,6.39
2022-11-20T19:59:05.163Z,6.51
2022-11-20T20:01:32.299Z,6.48
2022-11-20T20:04:04.542Z,6.47
2022-11-20T20:06:32.827Z,6.50
2022-11-20T20:09:05.393Z,6.48
2022-11-20T20:11:33.566Z,6.49
2022-11-20T20:14:04.717Z,6.47
2022-11-20T20:16:31.572Z,6.46
2022-11-20T20:19:00.693Z,6.33
2022-11-20T20:21:27.793Z,6.27
2022-11-20T20:23:54.737Z,6.24
2022-11-20T20:26:22.190Z,6.30
2022-11-20T20:28:48.900Z,6.39
2022-11-20T20:31:18.232Z,6.35
2022-11-20T20:33:45.172Z,6.40
2022-11-20T20:36:13.449Z,6.44
2022-11-20T20:38:40.186Z,6.33
2022-11-20T20:41:06.617Z,6.38
2022-11-20T20:43:53.041Z,6.41
2022-11-20T20:46:19.654Z,6.45
2022-11-20T20:48:49.054Z,6.53
2022-11-20T20:51:19.609Z,6.36
2022-11-20T20:53:46.132Z,6.23
2022-11-20T20:56:12.657Z,6.24
2022-11-20T20:58:39.601Z,6.30
2022-11-20T21:01:14.675Z,6.30
2022-11-20T21:03:41.475Z,6.19
2022-11-20T21:06:09.283Z,6.37
2022-11-20T21:08:39.969Z,6.43
2022-11-20T21:11:13.157Z,6.49
2022-11-20T21:13:40.648Z,6.50
2022-11-20T21:16:07.251Z,6.48
2022-11-20T21:18:34.200Z,6.53
2022-11-20T21:21:22.316Z,6.58
2022-11-20T21:23:48.972Z,6.64
2022-11-20T21:26:15.609Z,6.57
2022-11-20T21:28:42.347Z,6.57
2022-11-20T21:31:14.875Z,6.64
2022-11-20T21:33:43.197Z,6.64
2022-11-20T21:36:11.894Z,6.65
2022-11-20T21:38:38.521Z,6.64
2022-11-20T21:41:06.387Z,6.67
2022-11-20T21:43:32.921Z,6.65
2022-11-20T21:46:07.919Z,6.65
2022-11-20T21:48:36.554Z,5.79
2022-11-20T21:51:11.467Z,4.77
2022-11-20T21:53:38.212Z,3.92
2022-11-20T21:56:05.764Z,3.58
2022-11-20T21:58:34.100Z,4.62
2022-11-20T22:01:08.404Z,6.16
2022-11-20T22:03:36.428Z,7.15
2022-11-20T22:06:03.574Z,7.10
2022-11-20T22:08:30.213Z,6.02
2022-11-20T22:10:58.998Z,4.81
2022-11-20T22:13:44.586Z,4.27
2022-11-20T22:16:11.936Z,5.34
2022-11-20T22:18:52.804Z,6.19
2022-11-20T22:21:21.883Z,6.40
2022-11-20T22:23:48.777Z,6.48
2022-11-20T22:26:37.445Z,6.98
2022-11-20T22:29:06.963Z,8.29
2022-11-20T22:31:33.636Z,7.94
2022-11-20T22:34:01.314Z,6.40
2022-11-20T22:36:29.367Z,5.22
2022-11-20T22:38:56.206Z,4.33
2022-11-20T22:41:27.473Z,3.68
2022-11-20T22:43:59.040Z,3.51
2022-11-20T22:46:27.192Z,4.78
2022-11-20T22:48:56.201Z,6.62
2022-11-20T22:51:26.194Z,7.42
2022-11-20T22:53:53.050Z,7.59
2022-11-20T22:56:19.717Z,6.22
2022-11-20T22:58:48.344Z,4.91
2022-11-20T23:01:23.135Z,3.98
2022-11-20T23:03:55.111Z,3.92
2022-11-20T23:06:22.082Z,5.43
2022-11-20T23:08:49.640Z,5.77
2022-11-20T23:11:22.420Z,5.94
2022-11-20T23:13:59.501Z,5.94
2022-11-20T23:16:28.700Z,5.94
2022-11-20T23:19:00.459Z,6.06
2022-11-20T23:21:26.960Z,6.14
2022-11-20T23:23:55.571Z,6.19
2022-11-20T23:26:24.564Z,6.16
2022-11-20T23:28:53.146Z,6.11
2022-11-20T23:31:19.989Z,6.20
2022-11-20T23:33:46.421Z,6.05
2022-11-20T23:36:13.569Z,5.95
2022-11-20T23:38:40.295Z,6.01
2022-11-20T23:41:06.944Z,5.95
2022-11-20T23:43:33.993Z,5.91
2022-11-20T23:46:00.834Z,5.97
2022-11-20T23:48:33.544Z,5.99
2022-11-20T23:51:00.171Z,6.05
2022-11-20T23:53:26.745Z,6.18
2022-11-20T23:55:55.468Z,6.23
2022-11-20T23:58:23.199Z,6.32
